createdAt,value
2022-08-16T00:01:22.196Z,97635.22
2022-08-16T00:03:52.924Z,97627.94
2022-08-16T00:06:19.575Z,97632.47
2022-08-16T00:08:46.057Z,97638.63
2022-08-16T00:11:15.804Z,97633.75
2022-08-16T00:13:53.861Z,97629.13
2022-08-16T00:17:00.905Z,97628.84
2022-08-16T00:19:20.076Z,97633.72
2022-08-16T00:21:53.231Z,97642.63
2022-08-16T00:24:32.441Z,97630.72
2022-08-16T00:27:00.666Z,97630.03
2022-08-16T00:29:29.915Z,97630.50
2022-08-16T00:32:01.446Z,97633.41
2022-08-16T00:34:44.583Z,97634.94
2022-08-16T00:37:21.067Z,97637.25
2022-08-16T00:39:57.734Z,97634.16
2022-08-16T00:42:32.073Z,97635.22
2022-08-16T00:45:08.720Z,97638.78
2022-08-16T00:47:48.829Z,97637.94
2022-08-16T00:50:19.070Z,97638.38
2022-08-16T00:52:45.945Z,97644.22
2022-08-16T00:55:19.469Z,97648.41
2022-08-16T00:58:00.104Z,97643.38
2022-08-16T01:00:30.850Z,97640.38
2022-08-16T01:03:01.032Z,97641.88
2022-08-16T01:05:29.186Z,97636.38
2022-08-16T01:07:57.416Z,97640.56
2022-08-16T01:10:32.226Z,97636.59
2022-08-16T01:13:15.287Z,97634.44
2022-08-16T01:15:52.558Z,97641.03
2022-08-16T01:18:40.508Z,97649.09
2022-08-16T01:21:22.222Z,97642.41
2022-08-16T01:24:53.243Z,97641.59
2022-08-16T01:27:09.290Z,97642.03
2022-08-16T01:29:58.034Z,97647.53
2022-08-16T01:32:33.526Z,97643.63
2022-08-16T01:35:01.332Z,97649.88
2022-08-16T01:37:29.060Z,97645.72
2022-08-16T01:40:06.960Z,97649.47
2022-08-16T01:42:34.140Z,97655.53
2022-08-16T01:45:00.669Z,97650.69
2022-08-16T01:47:28.159Z,97647.16
2022-08-16T01:50:43.022Z,97649.56
2022-08-16T01:52:46.501Z,97650.94
2022-08-16T01:55:13.232Z,97655.31
2022-08-16T01:57:53.584Z,97653.84
2022-08-16T02:00:29.140Z,97652.91
2022-08-16T02:02:56.389Z,97647.81
2022-08-16T02:05:23.472Z,97649.38
2022-08-16T02:07:52.132Z,97649.38
2022-08-16T02:10:20.475Z,97648.94
2022-08-16T02:12:51.460Z,97650.31
2022-08-16T02:15:26.141Z,97645.94
2022-08-16T02:17:58.528Z,97649.06
2022-08-16T02:20:27.805Z,97649.38
2022-08-16T02:22:57.563Z,97653.22
2022-08-16T02:25:25.038Z,97660.00
2022-08-16T02:28:11.541Z,97652.19
2022-08-16T02:30:45.061Z,97655.94
2022-08-16T02:33:17.185Z,97664.50
2022-08-16T02:35:49.961Z,97654.69
2022-08-16T02:38:21.535Z,97650.72
2022-08-16T02:40:48.358Z,97656.13
2022-08-16T02:43:15.150Z,97650.72
2022-08-16T02:45:41.680Z,97657.09
2022-08-16T02:48:30.643Z,97663.66
2022-08-16T02:51:10.533Z,97660.28
2022-08-16T02:53:41.553Z,97658.81
2022-08-16T02:56:11.223Z,97656.44
2022-08-16T02:58:39.016Z,97657.19
2022-08-16T03:01:06.991Z,97662.38
2022-08-16T03:04:39.520Z,97650.72
2022-08-16T03:06:39.611Z,97655.38
2022-08-16T03:09:13.127Z,97653.38
2022-08-16T03:11:41.271Z,97655.88
2022-08-16T03:14:07.932Z,97653.59
2022-08-16T03:16:39.066Z,97656.19
2022-08-16T03:19:09.371Z,97660.91
2022-08-16T03:21:37.960Z,97662.81
2022-08-16T03:24:05.881Z,97656.53
2022-08-16T03:26:52.286Z,97661.28
2022-08-16T03:29:18.737Z,97658.34
2022-08-16T03:31:45.537Z,97652.75
2022-08-16T03:34:19.115Z,97658.50
2022-08-16T03:36:46.888Z,97649.31
2022-08-16T03:39:15.202Z,97658.25
2022-08-16T03:41:50.006Z,97655.66
2022-08-16T03:44:44.783Z,97653.16
2022-08-16T03:47:04.359Z,97648.66
2022-08-16T03:49:36.728Z,97653.06
2022-08-16T03:52:04.116Z,97657.69
2022-08-16T03:54:30.569Z,97654.91
2022-08-16T03:56:58.689Z,97662.59
2022-08-16T03:59:29.833Z,97658.25
2022-08-16T04:01:57.868Z,97658.47
2022-08-16T04:04:33.492Z,97657.28
2022-08-16T04:07:02.834Z,97654.91
2022-08-16T04:09:31.382Z,97660.50
2022-08-16T04:12:10.842Z,97654.19
2022-08-16T04:14:51.285Z,97663.16
2022-08-16T04:17:18.141Z,97669.00
2022-08-16T04:19:46.544Z,97674.13
2022-08-16T04:22:13.489Z,97676.31
2022-08-16T04:24:39.921Z,97676.03
2022-08-16T04:27:08.935Z,97678.25
2022-08-16T04:29:46.427Z,97678.69
2022-08-16T04:32:13.786Z,97687.44
2022-08-16T04:34:40.713Z,97690.91
2022-08-16T04:37:07.591Z,97691.81
2022-08-16T04:39:36.615Z,97696.97
2022-08-16T04:42:12.860Z,97702.00
2022-08-16T04:44:57.491Z,97699.84
2022-08-16T04:47:31.690Z,97693.78
2022-08-16T04:50:12.497Z,97694.50
2022-08-16T04:52:42.179Z,97703.50
2022-08-16T04:55:15.266Z,97694.03
2022-08-16T04:57:42.183Z,97717.22
2022-08-16T05:00:32.349Z,97716.22
2022-08-16T05:03:07.337Z,97718.59
2022-08-16T05:05:45.460Z,97708.84
2022-08-16T05:08:28.411Z,97721.31
2022-08-16T05:11:00.247Z,97720.13
2022-08-16T05:13:41.176Z,97714.00
2022-08-16T05:16:19.649Z,97717.13
2022-08-16T05:18:47.881Z,97712.72
2022-08-16T05:21:14.403Z,97706.56
2022-08-16T05:23:41.056Z,97709.16
2022-08-16T05:26:09.154Z,97708.59
2022-08-16T05:28:47.641Z,97712.47
2022-08-16T05:31:22.562Z,97709.56
2022-08-16T05:33:53.442Z,97710.63
2022-08-16T05:36:21.650Z,97714.41
2022-08-16T05:38:48.904Z,97730.47
2022-08-16T05:41:16.860Z,97723.78
2022-08-16T05:43:46.478Z,97720.81
2022-08-16T05:46:29.597Z,97712.75
2022-08-16T05:49:03.731Z,97709.13
2022-08-16T05:51:37.562Z,97712.56
2022-08-16T05:54:06.088Z,97711.97
2022-08-16T05:56:32.581Z,97716.50
2022-08-16T05:59:00.715Z,97723.03
2022-08-16T06:01:28.021Z,97720.63
2022-08-16T06:03:59.322Z,97717.91
2022-08-16T06:06:27.897Z,97729.59
2022-08-16T06:08:55.644Z,97725.00
2022-08-16T06:11:22.478Z,97728.69
2022-08-16T06:13:52.106Z,97731.06
2022-08-16T06:16:22.075Z,97731.38
2022-08-16T06:18:53.779Z,97734.22
2022-08-16T06:21:22.669Z,97730.28
2022-08-16T06:23:54.237Z,97732.09
2022-08-16T06:26:22.031Z,97728.75
2022-08-16T06:28:49.477Z,97726.59
2022-08-16T06:31:16.788Z,97727.25
2022-08-16T06:33:44.848Z,97724.34
2022-08-16T06:36:14.188Z,97729.56
2022-08-16T06:38:56.069Z,97736.13
2022-08-16T06:41:24.298Z,97741.19
2022-08-16T06:43:54.428Z,97738.66
2022-08-16T06:46:31.814Z,97750.06
2022-08-16T06:48:58.992Z,97746.78
2022-08-16T06:51:25.447Z,97746.53
2022-08-16T06:54:13.983Z,97754.66
2022-08-16T06:56:42.624Z,97745.53
2022-08-16T06:59:10.351Z,97750.97
2022-08-16T07:01:44.576Z,97762.38
2022-08-16T07:04:13.356Z,97768.38
2022-08-16T07:06:58.912Z,97763.84
2022-08-16T07:09:29.800Z,97769.41
2022-08-16T07:12:03.764Z,97759.91
2022-08-16T07:14:33.307Z,97760.25
2022-08-16T07:17:00.138Z,97761.06
2022-08-16T07:20:02.580Z,97762.66
2022-08-16T07:22:52.385Z,97769.63
2022-08-16T07:25:12.529Z,97758.97
2022-08-16T07:27:40.741Z,97756.97
2022-08-16T07:30:39.091Z,97763.63
2022-08-16T07:32:59.761Z,97765.53
2022-08-16T07:35:26.422Z,97762.03
2022-08-16T07:37:53.314Z,97758.44
2022-08-16T07:40:28.065Z,97760.34
2022-08-16T07:43:08.772Z,97767.22
2022-08-16T07:45:36.529Z,97768.28
2022-08-16T07:48:11.471Z,97772.63
2022-08-16T07:50:57.033Z,97774.25
2022-08-16T07:53:25.324Z,97757.91
2022-08-16T07:56:00.106Z,97767.72
2022-08-16T07:58:34.791Z,97774.56
2022-08-16T08:01:10.318Z,97769.84
2022-08-16T08:03:41.557Z,97776.59
2022-08-16T08:06:10.581Z,97781.16
2022-08-16T08:08:50.671Z,97772.22
2022-08-16T08:11:19.357Z,97767.16
2022-08-16T08:13:47.856Z,97765.63
2022-08-16T08:16:18.563Z,97763.97
2022-08-16T08:18:49.754Z,97770.56
2022-08-16T08:21:19.314Z,97769.50
2022-08-16T08:23:53.187Z,97771.69
2022-08-16T08:26:22.090Z,97773.31
2022-08-16T08:28:50.792Z,97771.84
2022-08-16T08:31:17.395Z,97765.50
2022-08-16T08:33:47.098Z,97768.66
2022-08-16T08:36:21.937Z,97764.59
2022-08-16T08:38:51.150Z,97771.72
2022-08-16T08:41:18.842Z,97771.56
2022-08-16T08:43:47.390Z,97782.25
2022-08-16T08:46:21.715Z,97787.78
2022-08-16T08:48:59.667Z,97787.19
2022-08-16T08:51:37.147Z,97778.16
2022-08-16T08:54:09.199Z,97780.06
2022-08-16T08:56:37.801Z,97786.22
2022-08-16T08:59:19.924Z,97785.13
2022-08-16T09:01:56.672Z,97779.28
2022-08-16T09:04:26.931Z,97782.38
2022-08-16T09:06:54.497Z,97785.72
2022-08-16T09:09:22.691Z,97782.91
2022-08-16T09:12:03.995Z,97789.22
2022-08-16T09:14:34.098Z,97788.19
2022-08-16T09:17:11.487Z,97769.31
2022-08-16T09:19:44.264Z,97767.16
2022-08-16T09:22:20.070Z,97764.13
2022-08-16T09:24:53.137Z,97771.31
2022-08-16T09:27:25.386Z,97773.91
2022-08-16T09:29:59.738Z,97770.63
2022-08-16T09:32:30.154Z,97768.34
2022-08-16T09:34:58.750Z,97765.50
2022-08-16T09:37:29.577Z,97766.78
2022-08-16T09:39:58.033Z,97759.09
2022-08-16T09:42:28.134Z,97766.06
2022-08-16T09:45:11.739Z,97758.31
2022-08-16T09:47:56.555Z,97762.84
2022-08-16T09:50:33.323Z,97758.41
2022-08-16T09:53:15.165Z,97763.44
2022-08-16T09:55:49.020Z,97760.63
2022-08-16T09:58:40.792Z,97753.34
2022-08-16T10:01:02.851Z,97748.75
2022-08-16T10:03:30.469Z,97754.53
2022-08-16T10:05:57.583Z,97757.91
2022-08-16T10:08:25.939Z,97758.59
2022-08-16T10:11:12.247Z,97760.16
2022-08-16T10:13:39.512Z,97760.00
2022-08-16T10:18:56.334Z,97763.78
2022-08-16T10:21:23.882Z,97757.09
2022-08-16T10:23:53.611Z,97753.44
2022-08-16T10:27:18.632Z,97759.16
2022-08-16T10:29:11.755Z,97757.50
2022-08-16T10:31:45.595Z,97752.38
2022-08-16T10:34:30.802Z,97751.91
2022-08-16T10:37:00.164Z,97753.91
2022-08-16T10:39:26.561Z,97753.88
2022-08-16T10:42:07.873Z,97751.59
2022-08-16T10:44:34.707Z,97752.91
2022-08-16T10:47:02.392Z,97750.25
2022-08-16T10:49:29.223Z,97754.72
2022-08-16T10:52:03.104Z,97757.25
2022-08-16T10:54:58.935Z,97753.06
2022-08-16T10:57:27.573Z,97759.84
2022-08-16T10:59:59.906Z,97755.38
2022-08-16T11:02:58.779Z,97754.84
2022-08-16T11:05:16.736Z,97754.84
2022-08-16T11:07:52.265Z,97744.69
2022-08-16T11:11:05.056Z,97759.44
2022-08-16T11:19:04.788Z,97755.69
2022-08-16T11:21:37.508Z,97757.66
2022-08-16T11:24:39.856Z,97748.69
2022-08-16T11:27:35.643Z,97754.97
2022-08-16T11:29:59.526Z,97750.53
2022-08-16T11:32:31.309Z,97753.44
2022-08-16T11:35:14.036Z,97746.59
2022-08-16T11:38:46.917Z,97750.63
2022-08-16T11:40:58.644Z,97743.53
2022-08-16T11:43:28.009Z,97743.00
2022-08-16T11:45:56.913Z,97740.78
2022-08-16T11:48:29.228Z,97742.38
2022-08-16T11:50:56.556Z,97747.75
2022-08-16T11:53:24.307Z,97742.38
2022-08-16T11:55:54.611Z,97745.50
2022-08-16T11:58:23.469Z,97741.09
2022-08-16T12:00:53.390Z,97736.75
2022-08-16T12:03:34.379Z,97731.44
2022-08-16T12:06:11.218Z,97731.00
2022-08-16T12:08:52.062Z,97730.53
2022-08-16T12:11:18.647Z,97732.63
2022-08-16T12:13:48.949Z,97733.84
2022-08-16T12:16:20.496Z,97731.22
2022-08-16T12:21:18.964Z,97727.56
2022-08-16T12:23:46.149Z,97734.00
2022-08-16T12:26:13.059Z,97734.03
2022-08-16T12:28:54.692Z,97735.38
2022-08-16T12:31:23.017Z,97739.69
2022-08-16T12:33:50.694Z,97732.16
2022-08-16T12:36:21.165Z,97730.06
2022-08-16T12:38:48.786Z,97728.59
2022-08-16T12:41:24.559Z,97728.03
2022-08-16T12:43:52.586Z,97731.44
2022-08-16T12:46:25.243Z,97730.84
2022-08-16T12:48:58.220Z,97725.09
2022-08-16T12:51:32.852Z,97720.56
2022-08-16T12:54:18.722Z,97721.59
2022-08-16T12:56:46.856Z,97716.28
2022-08-16T12:59:19.922Z,97718.09
2022-08-16T13:01:47.775Z,97715.88
2022-08-16T13:04:20.675Z,97706.63
2022-08-16T13:06:48.708Z,97707.25
2022-08-16T13:09:26.526Z,97714.44
2022-08-16T13:12:05.519Z,97705.19
2022-08-16T13:14:36.475Z,97703.00
2022-08-16T13:17:19.512Z,97702.94
2022-08-16T13:22:41.919Z,97700.53
2022-08-16T13:25:10.186Z,97693.13
2022-08-16T13:28:03.171Z,97695.16
2022-08-16T13:30:36.033Z,97699.69
2022-08-16T13:33:11.220Z,97698.84
2022-08-16T13:35:43.175Z,97702.22
2022-08-16T13:38:10.217Z,97704.34
2022-08-16T13:40:48.401Z,97695.41
2022-08-16T13:46:04.278Z,97693.41
2022-08-16T13:48:42.624Z,97688.41
2022-08-16T13:51:16.778Z,97693.34
2022-08-16T13:53:49.690Z,97703.06
2022-08-16T13:56:25.170Z,97696.47
2022-08-16T13:58:54.144Z,97693.06
2022-08-16T14:01:22.260Z,97691.69
2022-08-16T14:03:49.041Z,97705.53
2022-08-16T14:06:15.556Z,97704.50
2022-08-16T14:08:50.212Z,97686.09
2022-08-16T14:11:26.646Z,97696.91
2022-08-16T14:13:55.712Z,97694.44
2022-08-16T14:16:24.070Z,97684.72
2022-08-16T14:18:56.865Z,97697.28
2022-08-16T14:21:24.040Z,97696.28
2022-08-16T14:23:52.148Z,97685.91
2022-08-16T14:26:21.021Z,97690.28
2022-08-16T14:28:50.253Z,97686.63
2022-08-16T14:31:17.540Z,97683.59
2022-08-16T14:33:44.926Z,97681.88
2022-08-16T14:36:11.908Z,97685.34
2022-08-16T14:38:45.313Z,97679.34
2022-08-16T14:41:13.438Z,97678.34
2022-08-16T14:43:40.152Z,97672.66
2022-08-16T14:46:07.356Z,97683.34
2022-08-16T14:48:34.530Z,97676.97
2022-08-16T14:51:01.468Z,97671.78
2022-08-16T14:53:28.283Z,97670.31
2022-08-16T14:55:55.409Z,97662.19
2022-08-16T14:58:34.841Z,97662.09
2022-08-16T15:01:04.393Z,97665.69
2022-08-16T15:03:32.978Z,97660.88
2022-08-16T15:06:00.437Z,97663.69
2022-08-16T15:08:36.817Z,97657.28
2022-08-16T15:11:05.440Z,97663.22
2022-08-16T15:13:32.071Z,97653.13
2022-08-16T15:16:02.831Z,97659.31
2022-08-16T15:18:31.815Z,97663.06
2022-08-16T15:20:59.866Z,97655.44
2022-08-16T15:23:26.912Z,97661.28
2022-08-16T15:26:03.021Z,97668.00
2022-08-16T15:28:37.340Z,97659.78
2022-08-16T15:31:06.224Z,97659.09
2022-08-16T15:33:44.279Z,97651.50
2022-08-16T15:36:17.991Z,97651.84
2022-08-16T15:39:03.042Z,97643.72
2022-08-16T15:41:42.514Z,97654.03
2022-08-16T15:44:14.082Z,97658.47
2022-08-16T15:46:54.639Z,97657.13
2022-08-16T15:49:25.272Z,97657.28
2022-08-16T15:52:20.419Z,97657.75
2022-08-16T15:54:53.282Z,97653.78
2022-08-16T15:57:21.789Z,97659.25
2022-08-16T15:59:52.526Z,97662.19
2022-08-16T16:02:27.454Z,97657.31
2022-08-16T16:04:54.977Z,97660.75
2022-08-16T16:07:22.209Z,97661.53
2022-08-16T16:09:48.746Z,97664.16
2022-08-16T16:12:41.899Z,97663.69
2022-08-16T16:15:03.127Z,97668.81
2022-08-16T16:17:29.731Z,97662.38
2022-08-16T16:19:56.159Z,97663.50
2022-08-16T16:22:22.648Z,97669.47
2022-08-16T16:24:51.946Z,97666.91
2022-08-16T16:27:18.434Z,97660.28
2022-08-16T16:29:57.715Z,97655.69
2022-08-16T16:32:34.433Z,97660.16
2022-08-16T16:35:01.938Z,97668.09
2022-08-16T16:37:30.952Z,97665.97
2022-08-16T16:39:57.438Z,97670.50
2022-08-16T16:42:29.443Z,97665.88
2022-08-16T16:45:01.171Z,97658.81
2022-08-16T16:47:29.635Z,97657.84
2022-08-16T16:49:56.118Z,97659.16
2022-08-16T16:52:31.297Z,97655.69
2022-08-16T16:55:12.676Z,97665.38
2022-08-16T16:57:57.783Z,97653.97
2022-08-16T17:00:37.577Z,97664.88
2022-08-16T17:03:06.353Z,97655.97
2022-08-16T17:05:44.278Z,97659.78
2022-08-16T17:08:24.313Z,97656.34
2022-08-16T17:10:52.089Z,97661.28
2022-08-16T17:13:22.348Z,97658.47
2022-08-16T17:15:52.128Z,97656.50
2022-08-16T17:19:14.496Z,97656.66
2022-08-16T17:21:07.056Z,97661.44
2022-08-16T17:23:59.613Z,97660.31
2022-08-16T17:26:20.207Z,97666.44
2022-08-16T17:28:57.829Z,97655.16
2022-08-16T17:31:40.632Z,97657.66
2022-08-16T17:34:30.919Z,97660.63
2022-08-16T17:37:04.946Z,97664.59
2022-08-16T17:39:58.065Z,97658.63
2022-08-16T17:42:25.218Z,97664.25
2022-08-16T17:44:52.017Z,97663.44
2022-08-16T17:47:18.530Z,97668.03
2022-08-16T17:49:45.108Z,97671.84
2022-08-16T17:52:12.749Z,97671.66
2022-08-16T17:54:39.188Z,97671.78
2022-08-16T17:57:05.693Z,97678.22
2022-08-16T17:59:32.125Z,97676.91
2022-08-16T18:02:42.291Z,97677.03
2022-08-16T18:04:52.377Z,97675.03
2022-08-16T18:07:18.835Z,97679.00
2022-08-16T18:09:45.274Z,97676.31
2022-08-16T18:12:44.772Z,97675.50
2022-08-16T18:15:09.246Z,97680.72
2022-08-16T18:17:35.915Z,97676.50
2022-08-16T18:20:03.188Z,97680.91
2022-08-16T18:22:32.190Z,97685.94
2022-08-16T18:24:58.664Z,97687.66
2022-08-16T18:27:27.471Z,97688.72
2022-08-16T18:29:54.532Z,97688.59
2022-08-16T18:32:22.146Z,97690.94
2022-08-16T18:34:54.485Z,97687.41
2022-08-16T18:37:22.855Z,97688.03
2022-08-16T18:39:49.383Z,97696.75
2022-08-16T18:42:15.921Z,97689.91
2022-08-16T18:44:43.750Z,97687.19
2022-08-16T18:47:10.289Z,97691.25
2022-08-16T18:49:36.972Z,97691.78
2022-08-16T18:52:04.167Z,97688.44
2022-08-16T18:54:32.231Z,97692.56
2022-08-16T18:56:58.834Z,97693.84
2022-08-16T18:59:30.649Z,97688.03
2022-08-16T19:02:00.262Z,97688.91
2022-08-16T19:04:48.029Z,97690.47
2022-08-16T19:07:30.572Z,97693.94
2022-08-16T19:09:58.261Z,97695.63
2022-08-16T19:12:38.417Z,97701.44
2022-08-16T19:15:13.477Z,97704.91
2022-08-16T19:17:41.325Z,97712.81
2022-08-16T19:20:10.857Z,97710.06
2022-08-16T19:23:02.035Z,97707.84
2022-08-16T19:25:47.225Z,97713.34
2022-08-16T19:28:50.503Z,97713.19
2022-08-16T19:31:05.353Z,97721.63
2022-08-16T19:33:32.474Z,97723.44
2022-08-16T19:35:59.434Z,97721.47
2022-08-16T19:38:26.270Z,97718.81
2022-08-16T19:40:52.714Z,97716.75
2022-08-16T19:43:21.857Z,97715.22
2022-08-16T19:45:49.100Z,97717.44
2022-08-16T19:48:15.558Z,97725.81
2022-08-16T19:50:41.978Z,97727.31
2022-08-16T19:53:13.068Z,97728.94
2022-08-16T19:55:47.447Z,97729.44
2022-08-16T19:58:15.934Z,97733.47
2022-08-16T20:00:43.578Z,97735.63
2022-08-16T20:03:13.462Z,97737.97
2022-08-16T20:05:42.735Z,97737.63
2022-08-16T20:08:13.889Z,97740.66
2022-08-16T20:10:44.036Z,97738.44
2022-08-16T20:13:20.576Z,97742.41
2022-08-16T20:15:49.007Z,97743.63
2022-08-16T20:18:24.619Z,97750.06
2022-08-16T20:20:52.586Z,97752.53
2022-08-16T20:23:24.540Z,97756.34
2022-08-16T20:25:55.553Z,97749.69
2022-08-16T20:28:39.637Z,97758.03
2022-08-16T20:31:11.432Z,97757.44
2022-08-16T20:33:37.879Z,97762.25
2022-08-16T20:36:04.393Z,97761.91
2022-08-16T20:38:31.113Z,97760.63
2022-08-16T20:40:57.596Z,97753.41
2022-08-16T20:43:24.032Z,97759.72
2022-08-16T20:45:50.440Z,97762.97
2022-08-16T20:48:16.968Z,97765.97
2022-08-16T20:50:44.158Z,97767.97
2022-08-16T20:53:10.949Z,97770.72
2022-08-16T20:55:40.024Z,97768.47
2022-08-16T20:58:06.586Z,97767.19
2022-08-16T21:00:33.637Z,97763.41
2022-08-16T21:03:01.580Z,97765.44
2022-08-16T21:05:31.201Z,97762.34
2022-08-16T21:07:58.800Z,97766.16
2022-08-16T21:10:25.925Z,97756.97
2022-08-16T21:12:58.173Z,97763.28
2022-08-16T21:15:29.476Z,97772.56
2022-08-16T21:17:55.899Z,97774.50
2022-08-16T21:20:23.531Z,97772.25
2022-08-16T21:23:02.054Z,97776.03
2022-08-16T21:25:30.052Z,97783.06
2022-08-16T21:28:36.828Z,97774.72
2022-08-16T21:30:44.414Z,97779.38
2022-08-16T21:33:16.764Z,97772.59
2022-08-16T21:35:45.298Z,97775.44
2022-08-16T21:38:29.131Z,97778.31
2022-08-16T21:40:57.178Z,97773.41
2022-08-16T21:43:27.530Z,97786.03
2022-08-16T21:45:55.609Z,97781.38
2022-08-16T21:48:34.806Z,97789.59
2022-08-16T21:51:08.475Z,97786.38
2022-08-16T21:53:35.521Z,97784.22
2022-08-16T21:56:06.420Z,97783.84
2022-08-16T21:58:35.778Z,97785.03
2022-08-16T22:01:02.894Z,97787.72
2022-08-16T22:03:32.726Z,97786.06
2022-08-16T22:06:13.107Z,97791.75
2022-08-16T22:08:49.782Z,97785.78
2022-08-16T22:11:22.947Z,97786.97
2022-08-16T22:13:57.363Z,97783.75
2022-08-16T22:16:29.473Z,97782.44
2022-08-16T22:18:55.993Z,97784.34
2022-08-16T22:21:22.544Z,97781.09
2022-08-16T22:23:57.120Z,97786.69
2022-08-16T22:26:29.727Z,97780.84
2022-08-16T22:28:59.070Z,97784.53
2022-08-16T22:31:25.559Z,97793.31
2022-08-16T22:33:52.044Z,97781.16
2022-08-16T22:36:18.561Z,97782.97
2022-08-16T22:38:54.576Z,97790.22
2022-08-16T22:41:23.777Z,97783.31
2022-08-16T22:43:50.214Z,97784.34
2022-08-16T22:46:16.744Z,97774.13
2022-08-16T22:48:43.306Z,97776.84
2022-08-16T22:51:10.136Z,97778.75
2022-08-16T22:53:37.334Z,97780.88
2022-08-16T22:56:04.534Z,97780.69
2022-08-16T22:58:36.244Z,97779.97
2022-08-16T23:01:04.459Z,97782.59
2022-08-16T23:03:30.999Z,97771.53
2022-08-16T23:06:00.384Z,97776.25
2022-08-16T23:08:38.197Z,97776.69
2022-08-16T23:11:10.429Z,97776.81
2022-08-16T23:13:37.394Z,97775.97
2022-08-16T23:16:11.453Z,97775.25
2022-08-16T23:18:39.369Z,97779.94
2022-08-16T23:21:10.429Z,97780.13
2022-08-16T23:23:38.113Z,97776.31
2022-08-16T23:26:36.325Z,97776.50
2022-08-16T23:28:52.816Z,97779.34
2022-08-16T23:31:19.308Z,97769.13
2022-08-16T23:33:47.748Z,97769.13
2022-08-16T23:36:14.262Z,97773.41
2022-08-16T23:38:41.716Z,97772.69
2022-08-16T23:41:11.625Z,97774.78
2022-08-16T23:43:41.825Z,97776.91
2022-08-16T23:46:14.919Z,97778.88
2022-08-16T23:49:58.371Z,97781.06
2022-08-16T23:51:29.350Z,97778.66
2022-08-16T23:53:56.083Z,97775.56
2022-08-16T23:56:22.657Z,97774.81
2022-08-16T23:58:54.265Z,97776.81
